createdAt,value
2023-04-06T00:00:11.194Z,6.67
2023-04-06T00:02:40.010Z,6.20
2023-04-06T00:05:10.574Z,6.40
2023-04-06T00:07:39.190Z,6.60
2023-04-06T00:10:08.909Z,6.53
2023-04-06T00:12:37.520Z,6.33
2023-04-06T00:15:07.645Z,6.53
2023-04-06T00:17:36.264Z,6.80
2023-04-06T00:20:05.549Z,6.93
2023-04-06T00:22:36.540Z,6.10
2023-04-06T00:25:05.916Z,7.03
2023-04-06T00:27:34.477Z,7.37
2023-04-06T00:30:03.135Z,8.03
2023-04-06T00:32:31.751Z,5.93
2023-04-06T00:35:00.654Z,7.73
2023-04-06T00:37:29.281Z,7.30
2023-04-06T00:39:59.337Z,6.17
2023-04-06T00:42:27.944Z,6.33
2023-04-06T00:44:58.056Z,7.30
2023-04-06T00:47:27.403Z,6.83
2023-04-06T00:49:56.571Z,6.10
2023-04-06T00:52:25.458Z,6.53
2023-04-06T00:54:55.755Z,7.00
2023-04-06T00:57:26.569Z,6.70
2023-04-06T00:59:58.212Z,6.73
2023-04-06T01:02:27.384Z,8.70
2023-04-06T01:04:57.052Z,7.87
2023-04-06T01:07:31.399Z,6.93
2023-04-06T01:10:09.253Z,7.87
2023-04-06T01:12:40.577Z,6.90
2023-04-06T01:15:18.658Z,8.00
2023-04-06T01:17:52.248Z,7.87
2023-04-06T01:20:21.536Z,7.10
2023-04-06T01:22:51.729Z,7.37
2023-04-06T01:25:21.339Z,7.43
2023-04-06T01:28:08.095Z,7.77
2023-04-06T01:31:06.172Z,8.17
2023-04-06T01:33:51.812Z,7.93
2023-04-06T01:36:23.991Z,7.20
2023-04-06T01:39:03.079Z,7.73
2023-04-06T01:41:37.038Z,7.33
2023-04-06T01:44:05.889Z,7.83
2023-04-06T01:46:35.156Z,7.10
2023-04-06T01:49:06.960Z,7.97
2023-04-06T01:51:38.052Z,7.70
2023-04-06T01:54:11.218Z,7.33
2023-04-06T01:57:00.020Z,8.00
2023-04-06T01:59:35.565Z,7.37
2023-04-06T02:02:10.192Z,7.83
2023-04-06T02:04:40.823Z,7.50
2023-04-06T02:07:12.917Z,7.67
2023-04-06T02:09:42.976Z,8.07
2023-04-06T02:12:17.552Z,7.53
2023-04-06T02:14:46.271Z,8.60
2023-04-06T02:17:14.911Z,8.03
2023-04-06T02:19:43.537Z,7.97
2023-04-06T02:22:12.387Z,8.43
2023-04-06T02:24:42.506Z,7.93
2023-04-06T02:27:11.241Z,7.40
2023-04-06T02:29:39.833Z,8.00
2023-04-06T02:32:09.173Z,7.93
2023-04-06T02:34:37.869Z,7.07
2023-04-06T02:37:06.833Z,7.43
2023-04-06T02:39:35.439Z,7.07
2023-04-06T02:42:07.163Z,8.20
2023-04-06T02:44:35.830Z,7.70
2023-04-06T02:47:04.688Z,7.63
2023-04-06T02:49:33.676Z,7.90
2023-04-06T02:52:02.356Z,8.10
2023-04-06T02:54:35.077Z,7.17
2023-04-06T02:57:06.715Z,7.10
2023-04-06T02:59:45.412Z,8.30
2023-04-06T03:02:25.565Z,8.43
2023-04-06T03:04:58.653Z,7.87
2023-04-06T03:07:32.951Z,7.87
2023-04-06T03:10:01.986Z,7.60
2023-04-06T03:12:34.408Z,8.23
2023-04-06T03:15:18.827Z,7.00
2023-04-06T03:17:52.944Z,7.53
2023-04-06T03:20:34.797Z,7.97
2023-04-06T03:23:03.440Z,7.90
2023-04-06T03:25:36.858Z,7.07
2023-04-06T03:28:09.985Z,7.53
2023-04-06T03:30:47.176Z,8.20
2023-04-06T03:33:19.630Z,7.20
2023-04-06T03:35:55.358Z,6.53
2023-04-06T03:38:26.778Z,7.30
2023-04-06T03:40:56.508Z,6.93
2023-04-06T03:43:29.780Z,6.80
2023-04-06T03:45:58.403Z,6.97
2023-04-06T03:48:29.139Z,7.30
2023-04-06T03:50:57.788Z,6.90
2023-04-06T03:53:28.847Z,7.67
2023-04-06T03:55:57.544Z,6.03
2023-04-06T03:58:26.188Z,7.43
2023-04-06T04:00:56.478Z,8.30
2023-04-06T04:03:28.120Z,6.83
2023-04-06T04:05:57.127Z,6.80
2023-04-06T04:08:27.628Z,7.10
2023-04-06T04:10:56.233Z,7.50
2023-04-06T04:13:25.089Z,7.10
2023-04-06T04:15:55.824Z,7.03
2023-04-06T04:18:24.521Z,7.40
2023-04-06T04:20:53.478Z,7.60
2023-04-06T04:23:24.003Z,6.43
2023-04-06T04:25:52.801Z,7.37
2023-04-06T04:28:21.468Z,6.73
2023-04-06T04:30:50.348Z,6.73
2023-04-06T04:33:20.415Z,6.83
2023-04-06T04:35:49.358Z,7.70
2023-04-06T04:38:21.690Z,6.70
2023-04-06T04:40:54.386Z,7.50
2023-04-06T04:43:24.436Z,7.77
2023-04-06T04:45:53.515Z,6.43
2023-04-06T04:48:43.825Z,7.10
2023-04-06T04:51:12.467Z,7.50
2023-04-06T04:54:04.142Z,7.60
2023-04-06T04:56:34.692Z,7.03
2023-04-06T04:59:30.803Z,6.80
2023-04-06T05:02:06.184Z,7.40
2023-04-06T05:04:45.988Z,7.33
2023-04-06T05:07:21.849Z,8.07
2023-04-06T05:09:51.859Z,6.97
2023-04-06T05:12:21.913Z,8.07
2023-04-06T05:15:01.067Z,7.67
2023-04-06T05:17:29.956Z,8.40
2023-04-06T05:20:00.643Z,8.30
2023-04-06T05:22:32.057Z,8.10
2023-04-06T05:25:08.767Z,8.30
2023-04-06T05:27:37.727Z,8.13
2023-04-06T05:30:11.813Z,9.13
2023-04-06T05:32:47.344Z,7.87
2023-04-06T05:35:18.677Z,8.60
2023-04-06T05:37:51.246Z,7.93
2023-04-06T05:40:22.942Z,9.73
2023-04-06T05:42:52.496Z,8.30
2023-04-06T05:45:22.715Z,8.10
2023-04-06T05:47:56.220Z,8.07
2023-04-06T05:50:29.811Z,8.63
2023-04-06T05:52:59.486Z,8.87
2023-04-06T05:55:33.233Z,8.70
2023-04-06T05:58:11.988Z,7.57
2023-04-06T06:00:40.722Z,8.63
2023-04-06T06:03:11.713Z,7.83
2023-04-06T06:05:44.359Z,8.00
2023-04-06T06:08:19.840Z,7.97
2023-04-06T06:10:50.471Z,8.60
2023-04-06T06:13:22.808Z,9.30
2023-04-06T06:15:52.180Z,9.10
2023-04-06T06:18:22.505Z,8.43
2023-04-06T06:20:55.196Z,9.00
2023-04-06T06:23:23.899Z,7.93
2023-04-06T06:25:52.539Z,8.17
2023-04-06T06:28:23.884Z,8.50
2023-04-06T06:30:53.008Z,8.43
2023-04-06T06:33:25.039Z,8.40
2023-04-06T06:35:57.395Z,8.87
2023-04-06T06:38:26.342Z,8.33
2023-04-06T06:40:55.432Z,9.87
2023-04-06T06:43:26.911Z,8.87
2023-04-06T06:46:01.621Z,8.23
2023-04-06T06:48:30.427Z,9.57
2023-04-06T06:51:00.366Z,9.53
2023-04-06T06:53:29.295Z,9.80
2023-04-06T06:55:58.304Z,9.60
2023-04-06T06:58:27.524Z,10.10
2023-04-06T07:00:59.366Z,9.80
2023-04-06T07:03:29.397Z,9.67
2023-04-06T07:05:58.323Z,8.87
2023-04-06T07:08:29.256Z,9.97
2023-04-06T07:10:57.978Z,9.47
2023-04-06T07:13:28.374Z,9.50
2023-04-06T07:15:59.555Z,9.90
2023-04-06T07:18:28.520Z,9.23
2023-04-06T07:20:57.887Z,10.17
2023-04-06T07:23:28.694Z,9.90
2023-04-06T07:25:57.480Z,10.87
2023-04-06T07:28:30.357Z,10.53
2023-04-06T07:30:59.031Z,10.53
2023-04-06T07:33:31.034Z,10.53
2023-04-06T07:36:02.290Z,10.40
2023-04-06T07:38:33.085Z,9.97
2023-04-06T07:41:04.034Z,11.17
2023-04-06T07:43:35.488Z,10.60
2023-04-06T07:46:04.446Z,9.33
2023-04-06T07:48:33.496Z,10.67
2023-04-06T07:51:06.071Z,11.00
2023-04-06T07:53:39.403Z,10.00
2023-04-06T07:56:08.473Z,9.93
2023-04-06T07:58:37.141Z,10.87
2023-04-06T08:01:06.268Z,10.23
2023-04-06T08:03:36.481Z,9.67
2023-04-06T08:06:06.115Z,11.43
2023-04-06T08:08:34.792Z,11.37
2023-04-06T08:11:04.817Z,9.90
2023-04-06T08:13:33.604Z,10.57
2023-04-06T08:16:02.462Z,11.20
2023-04-06T08:18:31.141Z,10.83
2023-04-06T08:20:59.759Z,10.77
2023-04-06T08:23:28.409Z,10.73
2023-04-06T08:25:57.146Z,11.43
2023-04-06T08:28:27.185Z,10.47
2023-04-06T08:30:55.925Z,11.30
2023-04-06T08:33:24.539Z,11.20
2023-04-06T08:35:53.145Z,9.43
2023-04-06T08:38:21.839Z,11.43
2023-04-06T08:40:52.049Z,11.40
2023-04-06T08:43:24.414Z,10.57
2023-04-06T08:45:54.463Z,11.37
2023-04-06T08:48:24.994Z,10.63
2023-04-06T08:50:53.761Z,11.07
2023-04-06T08:53:24.246Z,11.97
2023-04-06T08:55:53.437Z,11.10
2023-04-06T08:58:35.224Z,11.97
2023-04-06T09:01:10.481Z,11.83
2023-04-06T09:03:41.153Z,11.50
2023-04-06T09:06:12.131Z,12.33
2023-04-06T09:08:41.966Z,11.87
2023-04-06T09:11:11.293Z,11.80
2023-04-06T09:13:51.028Z,10.70
2023-04-06T09:16:22.018Z,11.83
2023-04-06T09:18:52.031Z,11.23
2023-04-06T09:21:23.818Z,12.07
2023-04-06T09:24:01.605Z,11.57
2023-04-06T09:26:30.500Z,10.97
2023-04-06T09:29:02.360Z,11.70
2023-04-06T09:31:34.319Z,13.00
2023-04-06T09:34:03.878Z,12.40
2023-04-06T09:36:33.803Z,11.30
2023-04-06T09:39:04.152Z,12.00
2023-04-06T09:41:34.188Z,12.50
2023-04-06T09:44:07.429Z,11.63
2023-04-06T09:46:55.018Z,11.83
2023-04-06T09:49:30.086Z,11.73
2023-04-06T09:52:02.573Z,11.57
2023-04-06T09:54:32.923Z,12.70
2023-04-06T09:57:08.802Z,12.30
2023-04-06T09:59:46.281Z,13.27
2023-04-06T10:02:25.270Z,12.90
2023-04-06T10:05:00.016Z,13.57
2023-04-06T10:07:29.265Z,12.97
2023-04-06T10:09:58.258Z,12.13
2023-04-06T10:12:26.897Z,12.83
2023-04-06T10:14:56.442Z,12.67
2023-04-06T10:17:26.502Z,13.97
2023-04-06T10:19:59.970Z,13.37
2023-04-06T10:22:37.451Z,11.07
2023-04-06T10:25:06.713Z,11.40
2023-04-06T10:27:35.317Z,11.13
2023-04-06T10:30:05.200Z,9.80
2023-04-06T10:32:39.793Z,9.70
2023-04-06T10:35:09.882Z,7.80
2023-04-06T10:37:55.425Z,6.93
2023-04-06T10:40:28.168Z,6.07
2023-04-06T10:42:58.424Z,7.50
2023-04-06T10:45:28.365Z,6.17
2023-04-06T10:47:58.849Z,6.23
2023-04-06T10:50:27.542Z,6.73
2023-04-06T10:53:02.950Z,5.23
2023-04-06T10:55:32.887Z,5.20
2023-04-06T10:58:01.438Z,4.63
2023-04-06T11:00:39.607Z,4.83
2023-04-06T11:03:13.328Z,5.00
2023-04-06T11:05:47.882Z,4.80
2023-04-06T11:08:27.870Z,5.23
2023-04-06T11:11:08.788Z,3.50
2023-04-06T11:13:42.980Z,4.13
2023-04-06T11:16:16.421Z,4.10
2023-04-06T11:18:57.712Z,4.27
2023-04-06T11:21:37.655Z,4.73
2023-04-06T11:24:10.991Z,4.70
2023-04-06T11:26:44.753Z,4.90
2023-04-06T11:29:14.135Z,4.43
2023-04-06T11:31:44.252Z,4.17
2023-04-06T11:34:15.998Z,4.10
2023-04-06T11:36:45.712Z,4.73
2023-04-06T11:39:15.003Z,4.67
2023-04-06T11:41:44.533Z,3.83
2023-04-06T11:44:13.195Z,3.80
2023-04-06T11:46:41.849Z,3.63
2023-04-06T11:49:10.611Z,3.80
2023-04-06T11:51:40.617Z,4.50
2023-04-06T11:54:09.276Z,4.37
2023-04-06T11:56:37.961Z,4.07
2023-04-06T11:59:06.680Z,4.87
2023-04-06T12:01:39.218Z,4.43
2023-04-06T12:04:08.096Z,4.83
2023-04-06T12:06:36.811Z,4.90
2023-04-06T12:09:06.834Z,4.87
2023-04-06T12:11:35.570Z,4.87
2023-04-06T12:14:05.866Z,5.60
2023-04-06T12:16:34.893Z,5.03
2023-04-06T12:19:04.025Z,4.63
2023-04-06T12:21:33.483Z,5.13
2023-04-06T12:24:02.545Z,5.37
2023-04-06T12:26:32.904Z,5.67
2023-04-06T12:29:07.440Z,5.13
2023-04-06T12:31:39.742Z,6.00
2023-04-06T12:34:08.965Z,5.90
2023-04-06T12:36:39.419Z,5.60
2023-04-06T12:39:08.309Z,5.60
2023-04-06T12:41:41.438Z,5.97
2023-04-06T12:44:10.049Z,5.73
2023-04-06T12:46:38.737Z,6.13
2023-04-06T12:49:07.455Z,6.70
2023-04-06T12:51:36.171Z,5.70
2023-04-06T12:54:05.047Z,6.00
2023-04-06T12:56:33.675Z,6.53
2023-04-06T12:59:03.720Z,6.33
2023-04-06T13:01:32.447Z,5.57
2023-04-06T13:04:01.072Z,5.90
2023-04-06T13:06:30.221Z,6.10
2023-04-06T13:08:58.880Z,5.80
2023-04-06T13:11:28.809Z,7.13
2023-04-06T13:13:57.626Z,6.93
2023-04-06T13:16:27.636Z,6.40
2023-04-06T13:18:56.217Z,6.20
2023-04-06T13:21:24.930Z,6.70
2023-04-06T13:23:53.556Z,5.97
2023-04-06T13:26:22.370Z,6.80
2023-04-06T13:28:51.230Z,6.10
2023-04-06T13:31:19.850Z,6.87
2023-04-06T13:33:49.843Z,6.63
2023-04-06T13:36:18.571Z,6.57
2023-04-06T13:38:47.773Z,6.27
2023-04-06T13:41:21.890Z,7.17
2023-04-06T13:43:50.724Z,7.03
2023-04-06T13:46:19.850Z,6.57
2023-04-06T13:48:50.764Z,7.20
2023-04-06T13:51:19.388Z,6.90
2023-04-06T13:53:47.914Z,7.50
2023-04-06T13:56:16.462Z,8.77
2023-04-06T13:58:45.278Z,6.57
2023-04-06T14:01:14.145Z,6.37
2023-04-06T14:03:46.347Z,7.03
2023-04-06T14:06:29.767Z,6.50
2023-04-06T14:08:59.584Z,6.67
2023-04-06T14:11:28.289Z,7.00
2023-04-06T14:13:58.494Z,6.63
2023-04-06T14:16:27.760Z,7.43
2023-04-06T14:18:58.759Z,7.37
2023-04-06T14:21:28.928Z,7.13
2023-04-06T14:23:59.523Z,6.77
2023-04-06T14:26:28.610Z,7.00
2023-04-06T14:28:57.272Z,7.60
2023-04-06T14:31:25.916Z,7.20
2023-04-06T14:33:54.879Z,7.77
2023-04-06T14:36:23.440Z,6.70
2023-04-06T14:38:53.455Z,7.60
2023-04-06T14:41:24.611Z,7.43
2023-04-06T14:43:54.439Z,8.00
2023-04-06T14:46:23.159Z,7.23
2023-04-06T14:48:51.841Z,7.37
2023-04-06T14:51:20.460Z,7.13
2023-04-06T14:53:49.188Z,7.63
2023-04-06T14:56:23.378Z,7.07
2023-04-06T14:58:52.727Z,7.40
2023-04-06T15:01:21.636Z,7.23
2023-04-06T15:03:50.569Z,8.13
2023-04-06T15:06:21.554Z,8.50
2023-04-06T15:08:50.881Z,7.37
2023-04-06T15:11:19.616Z,8.03
2023-04-06T15:13:49.485Z,7.40
2023-04-06T15:16:18.098Z,7.43
2023-04-06T15:18:46.748Z,7.67
2023-04-06T15:21:15.432Z,7.60
2023-04-06T15:23:43.957Z,7.47
2023-04-06T15:26:12.516Z,7.53
2023-04-06T15:28:41.064Z,7.47
2023-04-06T15:31:28.277Z,7.97
2023-04-06T15:34:05.072Z,7.30
2023-04-06T15:36:33.963Z,7.40
2023-04-06T15:39:04.062Z,7.97
2023-04-06T15:41:32.699Z,7.97
2023-04-06T15:44:01.260Z,7.63
2023-04-06T15:46:31.253Z,8.10
2023-04-06T15:48:59.860Z,6.73
2023-04-06T15:51:29.455Z,7.57
2023-04-06T15:53:58.618Z,7.13
2023-04-06T15:56:27.164Z,8.23
2023-04-06T15:58:55.653Z,7.50
2023-04-06T16:01:24.203Z,8.03
2023-04-06T16:03:54.223Z,7.33
2023-04-06T16:06:22.951Z,8.53
2023-04-06T16:08:51.628Z,7.83
2023-04-06T16:11:21.288Z,8.40
2023-04-06T16:13:55.231Z,8.20
2023-04-06T16:16:24.968Z,8.67
2023-04-06T16:18:54.951Z,6.60
2023-04-06T16:21:23.597Z,6.73
2023-04-06T16:23:52.121Z,8.27
2023-04-06T16:26:21.740Z,8.60
2023-04-06T16:28:51.527Z,8.53
2023-04-06T16:31:21.636Z,7.53
2023-04-06T16:33:50.896Z,8.07
2023-04-06T16:36:24.933Z,8.00
2023-04-06T16:38:53.507Z,8.07
2023-04-06T16:41:22.558Z,6.47
2023-04-06T16:43:51.376Z,7.57
2023-04-06T16:46:20.285Z,8.37
2023-04-06T16:48:48.905Z,7.37
2023-04-06T16:51:18.773Z,7.33
2023-04-06T16:53:48.833Z,7.50
2023-04-06T16:56:17.617Z,7.30
2023-04-06T16:58:46.630Z,7.90
2023-04-06T17:01:22.003Z,7.27
2023-04-06T17:03:51.376Z,8.10
2023-04-06T17:06:20.465Z,7.13
2023-04-06T17:08:51.168Z,6.70
2023-04-06T17:11:25.445Z,7.10
2023-04-06T17:13:56.741Z,6.83
2023-04-06T17:16:27.140Z,7.23
2023-04-06T17:18:59.079Z,6.93
2023-04-06T17:21:27.810Z,8.00
2023-04-06T17:23:57.739Z,7.17
2023-04-06T17:26:26.608Z,7.77
2023-04-06T17:28:55.436Z,7.43
2023-04-06T17:31:23.974Z,8.63
2023-04-06T17:33:52.520Z,8.57
2023-04-06T17:36:21.980Z,7.17
2023-04-06T17:38:50.667Z,7.43
2023-04-06T17:41:21.657Z,7.90
2023-04-06T17:43:51.230Z,8.53
2023-04-06T17:46:20.569Z,8.53
2023-04-06T17:48:49.325Z,8.10
2023-04-06T17:51:19.398Z,8.27
2023-04-06T17:53:48.105Z,7.37
2023-04-06T17:56:16.617Z,7.97
2023-04-06T17:58:46.546Z,8.17
2023-04-06T18:01:16.210Z,6.67
2023-04-06T18:03:44.821Z,7.37
2023-04-06T18:06:14.642Z,8.03
2023-04-06T18:08:43.602Z,7.90
2023-04-06T18:11:18.848Z,8.20
2023-04-06T18:13:48.871Z,8.23
2023-04-06T18:16:20.051Z,8.50
2023-04-06T18:18:49.219Z,8.73
2023-04-06T18:21:17.804Z,8.67
2023-04-06T18:23:46.395Z,7.23
2023-04-06T18:26:19.069Z,7.10
2023-04-06T18:28:49.267Z,8.50
2023-04-06T18:31:18.444Z,7.50
2023-04-06T18:33:47.110Z,8.03
2023-04-06T18:36:15.993Z,11.07
2023-04-06T18:38:45.967Z,10.85
2023-04-06T18:41:14.811Z,8.50
2023-04-06T18:43:43.598Z,8.60
2023-04-06T18:46:14.887Z,7.53
2023-04-06T18:48:43.487Z,9.00
2023-04-06T18:51:12.180Z,8.60
2023-04-06T18:53:41.077Z,8.33
2023-04-06T18:56:15.783Z,7.47
2023-04-06T18:58:44.750Z,8.97
2023-04-06T19:01:21.773Z,9.63
2023-04-06T19:03:50.687Z,9.73
2023-04-06T19:06:19.634Z,9.33
2023-04-06T19:08:49.043Z,9.03
2023-04-06T19:11:17.949Z,9.33
2023-04-06T19:13:50.221Z,9.23
2023-04-06T19:16:20.506Z,9.40
2023-04-06T19:18:49.409Z,8.80
2023-04-06T19:21:18.753Z,9.50
2023-04-06T19:23:48.537Z,9.40
2023-04-06T19:26:18.017Z,10.03
2023-04-06T19:28:47.576Z,9.53
2023-04-06T19:31:18.493Z,8.80
2023-04-06T19:33:49.326Z,9.50
2023-04-06T19:36:18.227Z,10.27
2023-04-06T19:38:46.883Z,9.67
2023-04-06T19:41:15.728Z,9.67
2023-04-06T19:43:44.407Z,10.10
2023-04-06T19:46:14.705Z,9.20
2023-04-06T19:48:43.329Z,10.53
2023-04-06T19:51:13.501Z,9.80
2023-04-06T19:53:42.062Z,10.77
2023-04-06T19:56:11.236Z,10.53
2023-04-06T19:58:40.239Z,10.47
2023-04-06T20:01:08.906Z,10.60
2023-04-06T20:03:37.614Z,11.47
2023-04-06T20:06:06.807Z,11.10
2023-04-06T20:08:36.986Z,11.17
2023-04-06T20:11:07.606Z,10.63
2023-04-06T20:13:36.798Z,11.57
2023-04-06T20:16:05.810Z,12.27
2023-04-06T20:18:34.880Z,12.27
2023-04-06T20:21:03.864Z,12.80
2023-04-06T20:23:34.920Z,13.13
2023-04-06T20:26:05.111Z,15.10
2023-04-06T20:28:33.847Z,11.87
2023-04-06T20:31:02.610Z,12.73
2023-04-06T20:33:31.443Z,12.60
2023-04-06T20:36:00.250Z,12.90
2023-04-06T20:38:33.447Z,13.67
2023-04-06T20:41:04.152Z,14.13
2023-04-06T20:43:32.837Z,12.73
2023-04-06T20:46:02.704Z,13.77
2023-04-06T20:48:35.997Z,13.97
2023-04-06T20:51:05.554Z,15.30
2023-04-06T20:53:34.223Z,13.60
2023-04-06T20:56:04.392Z,12.63
2023-04-06T20:58:33.039Z,13.77
2023-04-06T21:01:02.343Z,14.50
2023-04-06T21:03:31.266Z,14.87
2023-04-06T21:06:02.434Z,15.10
2023-04-06T21:08:35.602Z,15.70
2023-04-06T21:11:06.423Z,16.27
2023-04-06T21:13:36.409Z,17.20
2023-04-06T21:16:05.648Z,16.80
2023-04-06T21:18:34.468Z,15.50
2023-04-06T21:21:03.411Z,16.27
2023-04-06T21:23:32.043Z,16.30
2023-04-06T21:26:02.047Z,15.37
2023-04-06T21:28:32.151Z,17.80
2023-04-06T21:31:00.986Z,17.13
2023-04-06T21:33:31.375Z,18.87
2023-04-06T21:36:00.333Z,17.80
2023-04-06T21:38:29.275Z,17.90
2023-04-06T21:40:58.348Z,18.13
2023-04-06T21:43:27.196Z,18.57
2023-04-06T21:45:57.369Z,20.63
2023-04-06T21:48:26.104Z,19.80
2023-04-06T21:50:54.996Z,19.57
2023-04-06T21:53:23.824Z,19.93
2023-04-06T21:55:52.868Z,22.10
2023-04-06T21:58:21.640Z,20.90
2023-04-06T22:00:50.592Z,20.37
2023-04-06T22:03:21.024Z,21.53
2023-04-06T22:05:50.144Z,20.00
2023-04-06T22:08:32.769Z,18.87
2023-04-06T22:11:08.892Z,20.47
2023-04-06T22:13:38.404Z,19.50
2023-04-06T22:16:08.127Z,19.67
2023-04-06T22:18:39.212Z,20.03
2023-04-06T22:21:09.463Z,17.33
2023-04-06T22:23:42.257Z,18.03
2023-04-06T22:26:12.003Z,17.70
2023-04-06T22:28:42.207Z,16.80
2023-04-06T22:31:11.357Z,17.63
2023-04-06T22:33:41.517Z,16.70
2023-04-06T22:36:10.414Z,16.20
2023-04-06T22:38:39.203Z,15.97
2023-04-06T22:41:08.666Z,16.97
2023-04-06T22:43:40.439Z,16.07
2023-04-06T22:46:09.124Z,14.77
2023-04-06T22:48:37.778Z,13.13
2023-04-06T22:51:07.891Z,14.33
2023-04-06T22:53:36.633Z,12.10
2023-04-06T22:56:05.521Z,11.50
2023-04-06T22:58:34.212Z,10.60
2023-04-06T23:01:02.943Z,10.07
2023-04-06T23:03:31.989Z,8.73
2023-04-06T23:06:00.918Z,8.50
2023-04-06T23:08:31.252Z,7.83
2023-04-06T23:10:59.960Z,7.30
2023-04-06T23:13:28.532Z,7.73
2023-04-06T23:15:57.189Z,7.60
2023-04-06T23:18:25.910Z,7.23
2023-04-06T23:20:54.652Z,7.37
2023-04-06T23:23:23.490Z,6.03
2023-04-06T23:25:53.590Z,5.93
2023-04-06T23:28:22.332Z,7.03
2023-04-06T23:30:51.005Z,6.17
2023-04-06T23:33:19.778Z,7.05
2023-04-06T23:35:48.719Z,6.07
2023-04-06T23:38:17.517Z,6.60
2023-04-06T23:40:46.431Z,4.73
2023-04-06T23:43:16.671Z,4.80
2023-04-06T23:45:46.045Z,4.83
2023-04-06T23:48:14.748Z,5.10
2023-04-06T23:50:43.549Z,5.30
2023-04-06T23:53:12.409Z,4.80
2023-04-06T23:55:41.327Z,4.30
2023-04-06T23:58:10.182Z,5.43
